sensor_id;sensor_type;location;lat;lon;timestamp;P1;durP1;ratioP1;P2;durP2;ratioP2
22131;SDS011;11232;51.748;19.390;2024-01-16T00:00:11;5.37;;;2.47;;
22131;SDS011;11232;51.748;19.390;2024-01-16T00:02:37;7.10;;;2.27;;
22131;SDS011;11232;51.748;19.390;2024-01-16T00:05:03;3.50;;;2.20;;
22131;SDS011;11232;51.748;19.390;2024-01-16T00:07:29;5.10;;;2.40;;
22131;SDS011;11232;51.748;19.390;2024-01-16T00:09:54;5.60;;;2.20;;
22131;SDS011;11232;51.748;19.390;2024-01-16T00:12:20;5.07;;;2.00;;
22131;SDS011;11232;51.748;19.390;2024-01-16T00:14:46;5.07;;;2.00;;
22131;SDS011;11232;51.748;19.390;2024-01-16T00:17:11;3.87;;;2.10;;
22131;SDS011;11232;51.748;19.390;2024-01-16T00:19:37;8.60;;;2.50;;
22131;SDS011;11232;51.748;19.390;2024-01-16T00:22:02;8.67;;;2.30;;
22131;SDS011;11232;51.748;19.390;2024-01-16T00:24:29;4.30;;;1.97;;
22131;SDS011;11232;51.748;19.390;2024-01-16T00:26:55;6.23;;;1.97;;
22131;SDS011;11232;51.748;19.390;2024-01-16T00:29:21;3.93;;;1.70;;
22131;SDS011;11232;51.748;19.390;2024-01-16T00:31:47;5.20;;;1.93;;
22131;SDS011;11232;51.748;19.390;2024-01-16T00:34:12;3.67;;;1.80;;
22131;SDS011;11232;51.748;19.390;2024-01-16T00:36:38;6.20;;;2.33;;
22131;SDS011;11232;51.748;19.390;2024-01-16T00:39:04;5.20;;;2.10;;
22131;SDS011;11232;51.748;19.390;2024-01-16T00:41:30;6.20;;;2.33;;
22131;SDS011;11232;51.748;19.390;2024-01-16T00:43:56;4.03;;;1.80;;
22131;SDS011;11232;51.748;19.390;2024-01-16T00:46:22;3.93;;;2.10;;
22131;SDS011;11232;51.748;19.390;2024-01-16T00:48:48;8.03;;;2.30;;
22131;SDS011;11232;51.748;19.390;2024-01-16T00:51:14;4.73;;;2.37;;
22131;SDS011;11232;51.748;19.390;2024-01-16T00:53:40;5.93;;;2.10;;
22131;SDS011;11232;51.748;19.390;2024-01-16T00:56:07;4.53;;;2.27;;
22131;SDS011;11232;51.748;19.390;2024-01-16T00:58:32;4.70;;;2.27;;
22131;SDS011;11232;51.748;19.390;2024-01-16T01:00:59;8.00;;;2.10;;
22131;SDS011;11232;51.748;19.390;2024-01-16T01:03:25;3.27;;;2.10;;
22131;SDS011;11232;51.748;19.390;2024-01-16T01:05:51;5.43;;;2.83;;
22131;SDS011;11232;51.748;19.390;2024-01-16T01:08:17;6.13;;;2.43;;
22131;SDS011;11232;51.748;19.390;2024-01-16T01:10:43;4.97;;;2.53;;
22131;SDS011;11232;51.748;19.390;2024-01-16T01:13:09;3.97;;;2.60;;
22131;SDS011;11232;51.748;19.390;2024-01-16T01:15:35;5.60;;;2.13;;
22131;SDS011;11232;51.748;19.390;2024-01-16T01:18:01;3.40;;;1.80;;
22131;SDS011;11232;51.748;19.390;2024-01-16T01:20:27;4.57;;;1.87;;
22131;SDS011;11232;51.748;19.390;2024-01-16T01:22:53;4.67;;;1.87;;
22131;SDS011;11232;51.748;19.390;2024-01-16T01:25:19;6.17;;;2.13;;
22131;SDS011;11232;51.748;19.390;2024-01-16T01:27:45;4.47;;;2.00;;
22131;SDS011;11232;51.748;19.390;2024-01-16T01:30:11;4.40;;;2.20;;
22131;SDS011;11232;51.748;19.390;2024-01-16T01:32:37;7.73;;;2.17;;
22131;SDS011;11232;51.748;19.390;2024-01-16T01:35:04;7.20;;;2.40;;
22131;SDS011;11232;51.748;19.390;2024-01-16T01:37:30;5.40;;;2.17;;
22131;SDS011;11232;51.748;19.390;2024-01-16T01:39:56;5.57;;;2.20;;
22131;SDS011;11232;51.748;19.390;2024-01-16T01:42:22;3.67;;;2.10;;
22131;SDS011;11232;51.748;19.390;2024-01-16T01:44:48;5.70;;;2.70;;
22131;SDS011;11232;51.748;19.390;2024-01-16T01:47:14;3.57;;;2.10;;
22131;SDS011;11232;51.748;19.390;2024-01-16T01:49:40;4.77;;;2.70;;
22131;SDS011;11232;51.748;19.390;2024-01-16T01:52:06;3.93;;;2.20;;
22131;SDS011;11232;51.748;19.390;2024-01-16T01:54:33;6.17;;;2.50;;
22131;SDS011;11232;51.748;19.390;2024-01-16T01:57:00;4.00;;;1.80;;
22131;SDS011;11232;51.748;19.390;2024-01-16T01:59:26;7.03;;;2.03;;
22131;SDS011;11232;51.748;19.390;2024-01-16T02:01:53;4.37;;;2.10;;
22131;SDS011;11232;51.748;19.390;2024-01-16T02:04:20;2.70;;;1.80;;
22131;SDS011;11232;51.748;19.390;2024-01-16T02:06:47;2.57;;;1.80;;
22131;SDS011;11232;51.748;19.390;2024-01-16T02:09:14;4.73;;;2.20;;
22131;SDS011;11232;51.748;19.390;2024-01-16T02:11:40;6.77;;;2.40;;
22131;SDS011;11232;51.748;19.390;2024-01-16T02:14:06;5.23;;;1.80;;
22131;SDS011;11232;51.748;19.390;2024-01-16T02:16:36;4.03;;;1.87;;
22131;SDS011;11232;51.748;19.390;2024-01-16T02:19:03;2.60;;;1.67;;
22131;SDS011;11232;51.748;19.390;2024-01-16T02:21:29;3.63;;;1.63;;
22131;SDS011;11232;51.748;19.390;2024-01-16T02:23:58;2.33;;;1.43;;
22131;SDS011;11232;51.748;19.390;2024-01-16T02:26:24;4.03;;;1.70;;
22131;SDS011;11232;51.748;19.390;2024-01-16T02:28:50;2.47;;;1.60;;
22131;SDS011;11232;51.748;19.390;2024-01-16T02:31:17;3.70;;;1.70;;
22131;SDS011;11232;51.748;19.390;2024-01-16T02:33:44;3.03;;;1.63;;
22131;SDS011;11232;51.748;19.390;2024-01-16T02:36:10;2.30;;;1.60;;
22131;SDS011;11232;51.748;19.390;2024-01-16T02:38:36;3.33;;;1.63;;
22131;SDS011;11232;51.748;19.390;2024-01-16T02:41:02;4.00;;;1.50;;
22131;SDS011;11232;51.748;19.390;2024-01-16T02:43:28;1.60;;;1.50;;
22131;SDS011;11232;51.748;19.390;2024-01-16T02:45:54;2.60;;;1.27;;
22131;SDS011;11232;51.748;19.390;2024-01-16T02:48:20;3.23;;;1.37;;
22131;SDS011;11232;51.748;19.390;2024-01-16T02:50:46;3.20;;;1.63;;
22131;SDS011;11232;51.748;19.390;2024-01-16T02:53:11;2.67;;;1.50;;
22131;SDS011;11232;51.748;19.390;2024-01-16T02:55:37;3.30;;;1.40;;
22131;SDS011;11232;51.748;19.390;2024-01-16T02:58:02;1.90;;;1.30;;
22131;SDS011;11232;51.748;19.390;2024-01-16T03:00:28;5.90;;;2.13;;
22131;SDS011;11232;51.748;19.390;2024-01-16T03:02:54;3.63;;;1.50;;
22131;SDS011;11232;51.748;19.390;2024-01-16T03:05:20;3.03;;;1.57;;
22131;SDS011;11232;51.748;19.390;2024-01-16T03:07:46;5.63;;;1.30;;
22131;SDS011;11232;51.748;19.390;2024-01-16T03:10:12;3.87;;;1.50;;
22131;SDS011;11232;51.748;19.390;2024-01-16T03:12:37;1.97;;;1.43;;
22131;SDS011;11232;51.748;19.390;2024-01-16T03:15:03;1.63;;;1.30;;
22131;SDS011;11232;51.748;19.390;2024-01-16T03:17:29;4.53;;;1.67;;
22131;SDS011;11232;51.748;19.390;2024-01-16T03:19:54;2.33;;;1.40;;
22131;SDS011;11232;51.748;19.390;2024-01-16T03:22:20;2.10;;;1.13;;
22131;SDS011;11232;51.748;19.390;2024-01-16T03:24:47;2.63;;;1.50;;
22131;SDS011;11232;51.748;19.390;2024-01-16T03:27:13;1.60;;;1.47;;
22131;SDS011;11232;51.748;19.390;2024-01-16T03:29:39;3.43;;;1.30;;
22131;SDS011;11232;51.748;19.390;2024-01-16T03:32:04;1.93;;;1.20;;
22131;SDS011;11232;51.748;19.390;2024-01-16T03:34:30;6.07;;;1.97;;
22131;SDS011;11232;51.748;19.390;2024-01-16T03:36:56;4.00;;;1.70;;
22131;SDS011;11232;51.748;19.390;2024-01-16T03:39:22;3.10;;;1.33;;
22131;SDS011;11232;51.748;19.390;2024-01-16T03:41:48;3.17;;;1.50;;
22131;SDS011;11232;51.748;19.390;2024-01-16T03:44:13;3.03;;;1.40;;
22131;SDS011;11232;51.748;19.390;2024-01-16T03:46:39;5.70;;;1.60;;
22131;SDS011;11232;51.748;19.390;2024-01-16T03:49:04;3.37;;;1.70;;
22131;SDS011;11232;51.748;19.390;2024-01-16T03:51:30;1.80;;;1.40;;
22131;SDS011;11232;51.748;19.390;2024-01-16T03:53:55;4.77;;;1.50;;
22131;SDS011;11232;51.748;19.390;2024-01-16T03:56:21;2.67;;;0.90;;
22131;SDS011;11232;51.748;19.390;2024-01-16T03:58:47;2.57;;;1.30;;
22131;SDS011;11232;51.748;19.390;2024-01-16T04:01:13;2.77;;;1.30;;
22131;SDS011;11232;51.748;19.390;2024-01-16T04:03:39;3.10;;;1.20;;
22131;SDS011;11232;51.748;19.390;2024-01-16T04:06:15;2.50;;;1.10;;
22131;SDS011;11232;51.748;19.390;2024-01-16T04:08:44;3.30;;;1.13;;
22131;SDS011;11232;51.748;19.390;2024-01-16T04:11:13;1.37;;;1.27;;
22131;SDS011;11232;51.748;19.390;2024-01-16T04:13:39;1.20;;;1.10;;
22131;SDS011;11232;51.748;19.390;2024-01-16T04:16:05;2.97;;;1.40;;
22131;SDS011;11232;51.748;19.390;2024-01-16T04:18:38;3.57;;;1.20;;
22131;SDS011;11232;51.748;19.390;2024-01-16T04:21:05;6.87;;;1.80;;
22131;SDS011;11232;51.748;19.390;2024-01-16T04:23:33;5.87;;;3.70;;
22131;SDS011;11232;51.748;19.390;2024-01-16T04:25:59;8.00;;;3.90;;
22131;SDS011;11232;51.748;19.390;2024-01-16T04:28:25;4.43;;;1.97;;
22131;SDS011;11232;51.748;19.390;2024-01-16T04:30:51;2.90;;;1.57;;
22131;SDS011;11232;51.748;19.390;2024-01-16T04:33:17;2.47;;;1.53;;
22131;SDS011;11232;51.748;19.390;2024-01-16T04:35:42;2.20;;;1.50;;
22131;SDS011;11232;51.748;19.390;2024-01-16T04:38:09;3.10;;;1.40;;
22131;SDS011;11232;51.748;19.390;2024-01-16T04:40:35;2.13;;;1.40;;
22131;SDS011;11232;51.748;19.390;2024-01-16T04:43:00;2.30;;;1.30;;
22131;SDS011;11232;51.748;19.390;2024-01-16T04:45:26;9.80;;;1.37;;
22131;SDS011;11232;51.748;19.390;2024-01-16T04:47:52;2.90;;;1.20;;
22131;SDS011;11232;51.748;19.390;2024-01-16T04:50:18;2.63;;;1.03;;
22131;SDS011;11232;51.748;19.390;2024-01-16T04:52:43;2.80;;;1.30;;
22131;SDS011;11232;51.748;19.390;2024-01-16T04:55:09;1.20;;;1.10;;
22131;SDS011;11232;51.748;19.390;2024-01-16T04:57:35;1.80;;;1.00;;
22131;SDS011;11232;51.748;19.390;2024-01-16T05:00:01;3.43;;;1.57;;
22131;SDS011;11232;51.748;19.390;2024-01-16T05:02:26;1.13;;;1.03;;
22131;SDS011;11232;51.748;19.390;2024-01-16T05:04:52;3.57;;;1.40;;
22131;SDS011;11232;51.748;19.390;2024-01-16T05:07:18;2.57;;;1.33;;
22131;SDS011;11232;51.748;19.390;2024-01-16T05:09:45;3.00;;;1.20;;
22131;SDS011;11232;51.748;19.390;2024-01-16T05:12:11;2.67;;;1.07;;
22131;SDS011;11232;51.748;19.390;2024-01-16T05:14:37;3.77;;;1.43;;
22131;SDS011;11232;51.748;19.390;2024-01-16T05:17:03;3.17;;;1.33;;
22131;SDS011;11232;51.748;19.390;2024-01-16T05:19:28;2.53;;;1.53;;
22131;SDS011;11232;51.748;19.390;2024-01-16T05:21:54;1.80;;;1.10;;
22131;SDS011;11232;51.748;19.390;2024-01-16T05:24:20;2.23;;;1.50;;
22131;SDS011;11232;51.748;19.390;2024-01-16T05:26:46;3.03;;;1.43;;
22131;SDS011;11232;51.748;19.390;2024-01-16T05:29:11;2.07;;;1.10;;
22131;SDS011;11232;51.748;19.390;2024-01-16T05:31:40;2.53;;;1.27;;
22131;SDS011;11232;51.748;19.390;2024-01-16T05:34:12;0.80;;;0.80;;
22131;SDS011;11232;51.748;19.390;2024-01-16T05:36:37;4.80;;;1.10;;
22131;SDS011;11232;51.748;19.390;2024-01-16T05:39:03;3.50;;;1.00;;
22131;SDS011;11232;51.748;19.390;2024-01-16T05:41:32;0.93;;;0.90;;
22131;SDS011;11232;51.748;19.390;2024-01-16T05:43:58;10.30;;;1.67;;
22131;SDS011;11232;51.748;19.390;2024-01-16T05:46:25;1.80;;;1.00;;
22131;SDS011;11232;51.748;19.390;2024-01-16T05:48:51;2.30;;;1.37;;
22131;SDS011;11232;51.748;19.390;2024-01-16T05:51:17;1.50;;;1.10;;
22131;SDS011;11232;51.748;19.390;2024-01-16T05:53:43;3.43;;;1.10;;
22131;SDS011;11232;51.748;19.390;2024-01-16T05:56:09;1.53;;;1.10;;
22131;SDS011;11232;51.748;19.390;2024-01-16T05:58:35;6.73;;;1.50;;
22131;SDS011;11232;51.748;19.390;2024-01-16T06:01:07;2.37;;;1.30;;
22131;SDS011;11232;51.748;19.390;2024-01-16T06:03:32;2.53;;;1.33;;
22131;SDS011;11232;51.748;19.390;2024-01-16T06:05:58;3.23;;;1.33;;
22131;SDS011;11232;51.748;19.390;2024-01-16T06:08:23;1.67;;;1.20;;
22131;SDS011;11232;51.748;19.390;2024-01-16T06:10:49;1.43;;;1.23;;
22131;SDS011;11232;51.748;19.390;2024-01-16T06:13:16;1.20;;;1.00;;
22131;SDS011;11232;51.748;19.390;2024-01-16T06:15:42;2.53;;;1.20;;
22131;SDS011;11232;51.748;19.390;2024-01-16T06:18:08;4.40;;;1.13;;
22131;SDS011;11232;51.748;19.390;2024-01-16T06:20:34;1.50;;;1.40;;
22131;SDS011;11232;51.748;19.390;2024-01-16T06:23:00;3.27;;;1.57;;
22131;SDS011;11232;51.748;19.390;2024-01-16T06:25:26;1.30;;;1.10;;
22131;SDS011;11232;51.748;19.390;2024-01-16T06:27:52;3.00;;;1.37;;
22131;SDS011;11232;51.748;19.390;2024-01-16T06:30:17;4.87;;;1.80;;
22131;SDS011;11232;51.748;19.390;2024-01-16T06:32:43;3.77;;;1.37;;
22131;SDS011;11232;51.748;19.390;2024-01-16T06:35:12;2.37;;;1.20;;
22131;SDS011;11232;51.748;19.390;2024-01-16T06:37:38;1.33;;;1.20;;
22131;SDS011;11232;51.748;19.390;2024-01-16T06:40:05;3.37;;;1.57;;
22131;SDS011;11232;51.748;19.390;2024-01-16T06:42:31;3.57;;;1.50;;
22131;SDS011;11232;51.748;19.390;2024-01-16T06:44:58;4.27;;;1.80;;
22131;SDS011;11232;51.748;19.390;2024-01-16T06:47:24;6.30;;;2.17;;
22131;SDS011;11232;51.748;19.390;2024-01-16T06:49:49;4.40;;;1.70;;
22131;SDS011;11232;51.748;19.390;2024-01-16T06:52:15;5.57;;;1.70;;
22131;SDS011;11232;51.748;19.390;2024-01-16T06:54:41;4.30;;;2.20;;
22131;SDS011;11232;51.748;19.390;2024-01-16T06:57:06;3.33;;;1.73;;
22131;SDS011;11232;51.748;19.390;2024-01-16T06:59:32;6.23;;;2.27;;
22131;SDS011;11232;51.748;19.390;2024-01-16T07:01:58;6.73;;;2.00;;
22131;SDS011;11232;51.748;19.390;2024-01-16T07:04:23;4.23;;;2.03;;
22131;SDS011;11232;51.748;19.390;2024-01-16T07:06:49;12.83;;;5.67;;
22131;SDS011;11232;51.748;19.390;2024-01-16T07:09:15;6.63;;;2.77;;
22131;SDS011;11232;51.748;19.390;2024-01-16T07:11:43;8.67;;;3.57;;
22131;SDS011;11232;51.748;19.390;2024-01-16T07:14:09;6.40;;;2.43;;
22131;SDS011;11232;51.748;19.390;2024-01-16T07:16:35;7.23;;;2.50;;
22131;SDS011;11232;51.748;19.390;2024-01-16T07:19:01;3.53;;;2.20;;
22131;SDS011;11232;51.748;19.390;2024-01-16T07:21:27;4.47;;;2.30;;
22131;SDS011;11232;51.748;19.390;2024-01-16T07:23:53;4.70;;;2.27;;
22131;SDS011;11232;51.748;19.390;2024-01-16T07:26:19;4.63;;;2.13;;
22131;SDS011;11232;51.748;19.390;2024-01-16T07:28:45;6.07;;;2.67;;
22131;SDS011;11232;51.748;19.390;2024-01-16T07:31:13;5.17;;;2.90;;
22131;SDS011;11232;51.748;19.390;2024-01-16T07:33:38;7.60;;;2.83;;
22131;SDS011;11232;51.748;19.390;2024-01-16T07:36:08;9.43;;;3.33;;
22131;SDS011;11232;51.748;19.390;2024-01-16T07:38:35;6.60;;;3.33;;
22131;SDS011;11232;51.748;19.390;2024-01-16T07:41:04;17.87;;;4.07;;
22131;SDS011;11232;51.748;19.390;2024-01-16T07:43:30;11.03;;;4.43;;
22131;SDS011;11232;51.748;19.390;2024-01-16T07:45:56;9.20;;;3.73;;
22131;SDS011;11232;51.748;19.390;2024-01-16T07:48:22;10.10;;;4.27;;
22131;SDS011;11232;51.748;19.390;2024-01-16T07:50:48;14.33;;;4.10;;
22131;SDS011;11232;51.748;19.390;2024-01-16T07:53:13;10.87;;;4.43;;
22131;SDS011;11232;51.748;19.390;2024-01-16T07:55:40;9.17;;;3.90;;
22131;SDS011;11232;51.748;19.390;2024-01-16T07:58:06;8.83;;;3.57;;
22131;SDS011;11232;51.748;19.390;2024-01-16T08:00:31;6.63;;;2.90;;
22131;SDS011;11232;51.748;19.390;2024-01-16T08:02:57;4.57;;;2.63;;
22131;SDS011;11232;51.748;19.390;2024-01-16T08:05:23;7.87;;;3.13;;
22131;SDS011;11232;51.748;19.390;2024-01-16T08:07:50;6.80;;;3.00;;
22131;SDS011;11232;51.748;19.390;2024-01-16T08:10:16;7.28;;;3.03;;
22131;SDS011;11232;51.748;19.390;2024-01-16T08:12:42;5.78;;;2.90;;
22131;SDS011;11232;51.748;19.390;2024-01-16T08:15:08;6.47;;;2.92;;
22131;SDS011;11232;51.748;19.390;2024-01-16T08:17:34;9.32;;;4.00;;
22131;SDS011;11232;51.748;19.390;2024-01-16T08:20:00;6.00;;;3.20;;
22131;SDS011;11232;51.748;19.390;2024-01-16T08:22:25;8.40;;;3.60;;
22131;SDS011;11232;51.748;19.390;2024-01-16T08:24:51;7.70;;;3.47;;
22131;SDS011;11232;51.748;19.390;2024-01-16T08:27:16;5.93;;;3.10;;
22131;SDS011;11232;51.748;19.390;2024-01-16T08:29:42;8.77;;;3.55;;
22131;SDS011;11232;51.748;19.390;2024-01-16T08:32:08;6.18;;;3.08;;
22131;SDS011;11232;51.748;19.390;2024-01-16T08:34:33;7.22;;;3.42;;
22131;SDS011;11232;51.748;19.390;2024-01-16T08:36:59;6.28;;;3.45;;
22131;SDS011;11232;51.748;19.390;2024-01-16T08:39:25;4.57;;;3.03;;
22131;SDS011;11232;51.748;19.390;2024-01-16T08:41:52;31.50;;;19.40;;
22131;SDS011;11232;51.748;19.390;2024-01-16T08:44:18;42.97;;;22.52;;
22131;SDS011;11232;51.748;19.390;2024-01-16T08:46:44;7.32;;;3.67;;
22131;SDS011;11232;51.748;19.390;2024-01-16T08:49:11;5.10;;;2.60;;
22131;SDS011;11232;51.748;19.390;2024-01-16T08:51:36;5.07;;;2.75;;
22131;SDS011;11232;51.748;19.390;2024-01-16T08:54:02;4.68;;;3.00;;
22131;SDS011;11232;51.748;19.390;2024-01-16T08:56:28;5.38;;;2.70;;
22131;SDS011;11232;51.748;19.390;2024-01-16T08:58:53;5.32;;;2.88;;
22131;SDS011;11232;51.748;19.390;2024-01-16T09:01:19;5.55;;;2.78;;
22131;SDS011;11232;51.748;19.390;2024-01-16T09:03:45;4.18;;;2.42;;
22131;SDS011;11232;51.748;19.390;2024-01-16T09:06:12;4.80;;;2.38;;
22131;SDS011;11232;51.748;19.390;2024-01-16T09:08:38;3.88;;;2.05;;
22131;SDS011;11232;51.748;19.390;2024-01-16T09:11:04;4.70;;;2.40;;
22131;SDS011;11232;51.748;19.390;2024-01-16T09:13:30;4.00;;;2.22;;
22131;SDS011;11232;51.748;19.390;2024-01-16T09:15:56;3.90;;;2.28;;
22131;SDS011;11232;51.748;19.390;2024-01-16T09:18:22;5.20;;;2.63;;
22131;SDS011;11232;51.748;19.390;2024-01-16T09:20:47;5.55;;;2.80;;
22131;SDS011;11232;51.748;19.390;2024-01-16T09:23:13;5.93;;;3.08;;
22131;SDS011;11232;51.748;19.390;2024-01-16T09:25:39;4.90;;;2.85;;
22131;SDS011;11232;51.748;19.390;2024-01-16T09:28:05;4.95;;;2.70;;
22131;SDS011;11232;51.748;19.390;2024-01-16T09:30:31;6.75;;;2.88;;
22131;SDS011;11232;51.748;19.390;2024-01-16T09:32:58;3.90;;;2.35;;
22131;SDS011;11232;51.748;19.390;2024-01-16T09:35:24;3.80;;;2.00;;
22131;SDS011;11232;51.748;19.390;2024-01-16T09:37:49;4.68;;;2.42;;
22131;SDS011;11232;51.748;19.390;2024-01-16T09:40:16;4.05;;;2.20;;
22131;SDS011;11232;51.748;19.390;2024-01-16T09:42:41;5.63;;;2.92;;
22131;SDS011;11232;51.748;19.390;2024-01-16T09:45:08;3.85;;;2.13;;
22131;SDS011;11232;51.748;19.390;2024-01-16T09:47:34;4.15;;;2.50;;
22131;SDS011;11232;51.748;19.390;2024-01-16T09:50:01;6.65;;;2.38;;
22131;SDS011;11232;51.748;19.390;2024-01-16T09:52:28;4.82;;;2.30;;
22131;SDS011;11232;51.748;19.390;2024-01-16T09:54:54;5.70;;;2.88;;
22131;SDS011;11232;51.748;19.390;2024-01-16T09:57:20;4.28;;;2.65;;
22131;SDS011;11232;51.748;19.390;2024-01-16T09:59:50;3.22;;;2.30;;
22131;SDS011;11232;51.748;19.390;2024-01-16T10:02:16;5.25;;;2.42;;
22131;SDS011;11232;51.748;19.390;2024-01-16T10:04:44;5.70;;;2.40;;
22131;SDS011;11232;51.748;19.390;2024-01-16T10:07:10;4.32;;;2.47;;
22131;SDS011;11232;51.748;19.390;2024-01-16T10:09:39;4.57;;;2.70;;
22131;SDS011;11232;51.748;19.390;2024-01-16T10:12:05;4.22;;;2.60;;
22131;SDS011;11232;51.748;19.390;2024-01-16T10:14:32;19.02;;;9.07;;
22131;SDS011;11232;51.748;19.390;2024-01-16T10:19:28;22.95;;;14.40;;
22131;SDS011;11232;51.748;19.390;2024-01-16T10:22:01;4.63;;;2.88;;
22131;SDS011;11232;51.748;19.390;2024-01-16T10:24:31;4.32;;;2.83;;
22131;SDS011;11232;51.748;19.390;2024-01-16T10:26:59;5.97;;;2.65;;
22131;SDS011;11232;51.748;19.390;2024-01-16T10:29:28;4.28;;;2.95;;
22131;SDS011;11232;51.748;19.390;2024-01-16T10:31:56;4.95;;;3.10;;
22131;SDS011;11232;51.748;19.390;2024-01-16T10:34:22;5.00;;;3.50;;
22131;SDS011;11232;51.748;19.390;2024-01-16T10:36:49;4.10;;;2.78;;
22131;SDS011;11232;51.748;19.390;2024-01-16T10:39:17;6.65;;;2.90;;
22131;SDS011;11232;51.748;19.390;2024-01-16T10:41:53;5.85;;;3.10;;
22131;SDS011;11232;51.748;19.390;2024-01-16T10:44:20;5.70;;;3.17;;
22131;SDS011;11232;51.748;19.390;2024-01-16T10:46:46;4.95;;;2.42;;
22131;SDS011;11232;51.748;19.390;2024-01-16T10:49:11;4.00;;;2.25;;
22131;SDS011;11232;51.748;19.390;2024-01-16T10:51:37;3.38;;;2.40;;
22131;SDS011;11232;51.748;19.390;2024-01-16T10:54:06;6.10;;;2.63;;
22131;SDS011;11232;51.748;19.390;2024-01-16T10:56:38;4.75;;;2.25;;
22131;SDS011;11232;51.748;19.390;2024-01-16T11:01:43;5.22;;;3.15;;
22131;SDS011;11232;51.748;19.390;2024-01-16T11:04:13;3.92;;;2.58;;
22131;SDS011;11232;51.748;19.390;2024-01-16T11:06:40;4.82;;;3.15;;
22131;SDS011;11232;51.748;19.390;2024-01-16T11:09:07;6.30;;;3.42;;
22131;SDS011;11232;51.748;19.390;2024-01-16T11:11:34;6.57;;;3.42;;
22131;SDS011;11232;51.748;19.390;2024-01-16T11:14:03;6.95;;;3.90;;
22131;SDS011;11232;51.748;19.390;2024-01-16T11:16:30;6.22;;;3.15;;
22131;SDS011;11232;51.748;19.390;2024-01-16T11:18:57;25.77;;;14.48;;
22131;SDS011;11232;51.748;19.390;2024-01-16T11:21:23;7.03;;;3.78;;
22131;SDS011;11232;51.748;19.390;2024-01-16T11:23:50;6.13;;;3.42;;
22131;SDS011;11232;51.748;19.390;2024-01-16T11:28:53;5.93;;;3.50;;
22131;SDS011;11232;51.748;19.390;2024-01-16T11:31:28;8.33;;;4.07;;
22131;SDS011;11232;51.748;19.390;2024-01-16T11:33:54;8.57;;;4.23;;
22131;SDS011;11232;51.748;19.390;2024-01-16T11:36:42;11.20;;;4.30;;
22131;SDS011;11232;51.748;19.390;2024-01-16T11:39:16;8.63;;;4.57;;
22131;SDS011;11232;51.748;19.390;2024-01-16T11:47:03;17.63;;;8.03;;
22131;SDS011;11232;51.748;19.390;2024-01-16T11:49:29;10.60;;;5.20;;
22131;SDS011;11232;51.748;19.390;2024-01-16T11:51:58;10.73;;;4.73;;
22131;SDS011;11232;51.748;19.390;2024-01-16T11:54:24;11.63;;;4.90;;
22131;SDS011;11232;51.748;19.390;2024-01-16T11:59:42;10.47;;;4.40;;
22131;SDS011;11232;51.748;19.390;2024-01-16T12:02:20;8.93;;;4.10;;
22131;SDS011;11232;51.748;19.390;2024-01-16T12:04:53;10.70;;;4.60;;
22131;SDS011;11232;51.748;19.390;2024-01-16T12:07:28;9.90;;;4.63;;
22131;SDS011;11232;51.748;19.390;2024-01-16T12:09:58;8.87;;;4.27;;
22131;SDS011;11232;51.748;19.390;2024-01-16T12:12:25;10.33;;;4.57;;
22131;SDS011;11232;51.748;19.390;2024-01-16T12:14:51;7.73;;;4.23;;
22131;SDS011;11232;51.748;19.390;2024-01-16T12:17:20;8.67;;;4.67;;
22131;SDS011;11232;51.748;19.390;2024-01-16T12:19:46;11.47;;;4.70;;
22131;SDS011;11232;51.748;19.390;2024-01-16T12:22:14;12.07;;;5.23;;
22131;SDS011;11232;51.748;19.390;2024-01-16T12:24:41;12.60;;;5.43;;
22131;SDS011;11232;51.748;19.390;2024-01-16T12:27:07;13.00;;;5.27;;
22131;SDS011;11232;51.748;19.390;2024-01-16T12:29:34;14.63;;;5.43;;
22131;SDS011;11232;51.748;19.390;2024-01-16T12:32:07;12.97;;;5.47;;
22131;SDS011;11232;51.748;19.390;2024-01-16T12:34:34;20.60;;;7.60;;
22131;SDS011;11232;51.748;19.390;2024-01-16T12:37:06;11.77;;;5.50;;
22131;SDS011;11232;51.748;19.390;2024-01-16T12:39:33;14.03;;;5.77;;
22131;SDS011;11232;51.748;19.390;2024-01-16T12:42:00;11.90;;;5.27;;
22131;SDS011;11232;51.748;19.390;2024-01-16T12:44:27;13.97;;;5.70;;
22131;SDS011;11232;51.748;19.390;2024-01-16T12:46:53;9.07;;;5.00;;
22131;SDS011;11232;51.748;19.390;2024-01-16T12:49:20;11.77;;;5.40;;
22131;SDS011;11232;51.748;19.390;2024-01-16T12:51:46;11.03;;;4.30;;
22131;SDS011;11232;51.748;19.390;2024-01-16T12:54:12;8.40;;;3.83;;
22131;SDS011;11232;51.748;19.390;2024-01-16T12:56:39;5.77;;;3.67;;
22131;SDS011;11232;51.748;19.390;2024-01-16T12:59:12;5.90;;;3.47;;
22131;SDS011;11232;51.748;19.390;2024-01-16T13:01:43;7.13;;;3.90;;
22131;SDS011;11232;51.748;19.390;2024-01-16T13:04:11;12.53;;;4.07;;
22131;SDS011;11232;51.748;19.390;2024-01-16T13:06:37;8.77;;;3.77;;
22131;SDS011;11232;51.748;19.390;2024-01-16T13:09:04;9.20;;;4.00;;
22131;SDS011;11232;51.748;19.390;2024-01-16T13:11:44;8.20;;;3.93;;
22131;SDS011;11232;51.748;19.390;2024-01-16T13:14:10;8.47;;;3.67;;
22131;SDS011;11232;51.748;19.390;2024-01-16T13:16:36;8.90;;;4.03;;
22131;SDS011;11232;51.748;19.390;2024-01-16T13:19:02;9.40;;;3.80;;
22131;SDS011;11232;51.748;19.390;2024-01-16T13:21:30;8.53;;;3.70;;
22131;SDS011;11232;51.748;19.390;2024-01-16T13:23:56;6.90;;;3.57;;
22131;SDS011;11232;51.748;19.390;2024-01-16T13:26:22;7.00;;;3.53;;
22131;SDS011;11232;51.748;19.390;2024-01-16T13:28:48;5.53;;;3.57;;
22131;SDS011;11232;51.748;19.390;2024-01-16T13:31:14;11.37;;;3.70;;
22131;SDS011;11232;51.748;19.390;2024-01-16T13:33:41;9.43;;;3.80;;
22131;SDS011;11232;51.748;19.390;2024-01-16T13:36:08;7.77;;;3.67;;
22131;SDS011;11232;51.748;19.390;2024-01-16T13:38:34;11.23;;;4.27;;
22131;SDS011;11232;51.748;19.390;2024-01-16T13:41:00;11.77;;;4.27;;
22131;SDS011;11232;51.748;19.390;2024-01-16T13:43:27;8.07;;;4.37;;
22131;SDS011;11232;51.748;19.390;2024-01-16T13:45:53;9.33;;;4.27;;
22131;SDS011;11232;51.748;19.390;2024-01-16T13:48:20;10.67;;;4.27;;
22131;SDS011;11232;51.748;19.390;2024-01-16T13:50:46;8.20;;;4.97;;
22131;SDS011;11232;51.748;19.390;2024-01-16T13:53:12;11.47;;;5.17;;
22131;SDS011;11232;51.748;19.390;2024-01-16T13:55:41;14.00;;;5.40;;
22131;SDS011;11232;51.748;19.390;2024-01-16T13:58:08;7.63;;;4.20;;
22131;SDS011;11232;51.748;19.390;2024-01-16T14:00:34;13.10;;;5.17;;
22131;SDS011;11232;51.748;19.390;2024-01-16T14:03:00;11.53;;;5.50;;
22131;SDS011;11232;51.748;19.390;2024-01-16T14:05:28;12.13;;;5.53;;
22131;SDS011;11232;51.748;19.390;2024-01-16T14:07:54;11.33;;;5.07;;
22131;SDS011;11232;51.748;19.390;2024-01-16T14:10:20;11.27;;;5.57;;
22131;SDS011;11232;51.748;19.390;2024-01-16T14:12:48;15.53;;;5.60;;
22131;SDS011;11232;51.748;19.390;2024-01-16T14:15:15;10.83;;;5.83;;
22131;SDS011;11232;51.748;19.390;2024-01-16T14:17:44;14.73;;;4.87;;
22131;SDS011;11232;51.748;19.390;2024-01-16T14:20:10;11.23;;;4.53;;
22131;SDS011;11232;51.748;19.390;2024-01-16T14:22:37;13.70;;;5.60;;
22131;SDS011;11232;51.748;19.390;2024-01-16T14:25:03;12.43;;;5.83;;
22131;SDS011;11232;51.748;19.390;2024-01-16T14:27:39;13.20;;;6.03;;
22131;SDS011;11232;51.748;19.390;2024-01-16T14:30:09;14.70;;;6.53;;
22131;SDS011;11232;51.748;19.390;2024-01-16T14:32:36;13.03;;;6.37;;
22131;SDS011;11232;51.748;19.390;2024-01-16T14:35:03;13.50;;;6.90;;
22131;SDS011;11232;51.748;19.390;2024-01-16T14:37:30;11.47;;;6.43;;
22131;SDS011;11232;51.748;19.390;2024-01-16T14:39:57;14.57;;;6.67;;
22131;SDS011;11232;51.748;19.390;2024-01-16T14:42:26;11.10;;;5.83;;
22131;SDS011;11232;51.748;19.390;2024-01-16T14:44:53;13.73;;;5.70;;